Airfield :
LOGIN :

Register | Disclaimer

   EN    FR    IT 

 










Legend :    VFR   Marginal VFR   IFR   Intensive IFR   Very Intensive IFR
Visi :
Ceiling :
>= 8 km
>= 3000ft
5 to 8 km
1000 to 3000 ft
1500m to 5 km
500 to 1000 ft
800 to 1500m
200 to 500 ft
< 800m
< 200 ft
Symbols :   Thunderstorms  Fog  Heavy snow  Heavy precipitations  Wind > 20 kt
SIGMETs :     Misc.  Thunderstorms  Icing  Turbulence  Mountain Waves  Volcanic Ashes






- Airport Elevation : 20 ft


EBFN - Koksijde

CURRENT METAR :
  • 180125Z AUTO VRB02KT 4200 BR BKN058/// BKN170/// 03/02 Q1010 GRN

EXPIRED METARs :
  • 180111Z AUTO 24003KT 4800 FEW057/// SCT160/// BKN170/// 03/02 Q1010 GRN
  • 180055Z AUTO 23003KT 6000 FEW027/// BKN160/// BKN180/// 03/02 Q1010 WHT
  • 180025Z AUTO 25003KT 6000 BKN140/// 04/02 Q1010 WHT
  • 180003Z AUTO 26003KT 7000 BKN150/// 04/02 Q1010 WHT
  • 172343Z AUTO 26005KT 7000 FEW023/// BKN160/// 04/02 Q1011 WHT
  • 172255Z AUTO 25003KT 7000 BKN170/// BKN220/// 03/02 Q1011 WHT

TAF TAF EBFN
Valid from the 17 at 19:00 until the 18 at 07:00 UTC


171541Z 1719/1807 03015KT 9999 SCT025 BKN200
TEMPO 1701/1807 02020G30KT 4000 -RA/-SHRA FEW012 SCT015 SCT025



MET'MAP, your aeronautical weather chart ! - Copyright ORBIFLY December 2007 - Disclaimer

ORBIFLY MET'MAP TEAM :

Programming & Development : Alexandra Zaïnal
Concept & Development : Baudouin d'Aumeries
Co-Development & Prog : Marc-Olivier Méhu
Technical & hardware support : Manuel Goepfert

Contact : metmap@orbifly.com




SOURCES & CREDITS :

   NOAA